Time;durP1;ratioP1;P1;durP2;ratioP2;P2;SDS_P1;SDS_P2;PMS_P1;PMS_P2;Temp;Humidity;BMP_temperature;BMP_pressure;BME280_temperature;BME280_humidity;BME280_pressure;Samples;Min_cycle;Max_cycle;Signal;HPM_P1;HPM_P2
2022/09/27 00:02:15;;;;;;;9.17;2.60;;;;;;;9.06;100.00;99553.16;5037996;28;20078;-86
2022/09/27 00:04:40;;;;;;;9.53;2.23;;;;;;;9.05;100.00;99549.63;5038342;28;20036;-87
2022/09/27 00:07:06;;;;;;;11.20;2.53;;;;;;;9.04;100.00;99552.56;5038269;28;20173;-86
2022/09/27 00:09:32;;;;;;;12.43;2.77;;;;;;;9.09;100.00;99558.09;5038048;28;20048;-88
2022/09/27 00:11:57;;;;;;;10.03;2.70;;;;;;;9.08;100.00;99561.84;5037831;28;20247;-87
2022/09/27 00:14:22;;;;;;;9.37;2.80;;;;;;;9.08;100.00;99567.25;5037401;28;20033;-86
2022/09/27 00:16:48;;;;;;;8.10;2.63;;;;;;;9.06;100.00;99570.19;5038499;28;20047;-87
2022/09/27 00:19:16;;;;;;;9.13;2.50;;;;;;;9.09;100.00;99568.91;5035795;28;20038;-87
2022/09/27 00:21:43;;;;;;;9.93;2.93;;;;;;;9.09;100.00;99572.41;5038182;28;20047;-88
2022/09/27 00:24:12;;;;;;;9.03;3.27;;;;;;;9.10;100.00;99576.75;5037792;28;20063;-87
2022/09/27 00:26:38;;;;;;;9.53;3.40;;;;;;;9.13;100.00;99575.47;5036752;28;20033;-86
2022/09/27 00:29:03;;;;;;;9.20;3.10;;;;;;;9.09;100.00;99574.31;5027585;28;20086;-86
2022/09/27 00:31:29;;;;;;;10.57;3.27;;;;;;;9.09;100.00;99577.00;5037978;28;20035;-84
2022/09/27 00:33:57;;;;;;;11.40;3.10;;;;;;;9.12;100.00;99581.94;5037295;28;20036;-87
2022/09/27 00:36:24;;;;;;;9.13;2.83;;;;;;;9.11;100.00;99581.13;5037739;28;20053;-86
2022/09/27 00:38:50;;;;;;;7.83;2.60;;;;;;;9.12;100.00;99587.34;5069751;28;20485;-88
2022/09/27 00:41:20;;;;;;;7.83;2.60;;;;;;;9.10;100.00;99584.88;5037655;28;20301;-87
2022/09/27 00:43:54;;;;;;;8.37;2.03;;;;;;;9.10;100.00;99586.75;5037370;28;20389;-89
2022/09/27 00:46:29;;;;;;;4.65;2.10;;;;;;;9.11;100.00;99582.97;5037781;28;20044;-86
2022/09/27 00:49:30;;;;;;;7.82;2.35;;;;;;;9.15;100.00;99589.56;5037610;28;20045;-86
2022/09/27 00:52:01;;;;;;;10.67;2.37;;;;;;;9.09;100.00;99587.81;5037583;28;20509;-87
2022/09/27 00:54:28;;;;;;;9.17;2.50;;;;;;;9.09;100.00;99594.03;5037104;28;20041;-87
2022/09/27 00:56:55;;;;;;;6.83;2.23;;;;;;;9.10;100.00;99597.56;5037534;28;20041;-87
2022/09/27 00:59:58;;;;;;;9.07;2.40;;;;;;;9.11;100.00;99608.16;5035132;28;20040;-88
2022/09/27 01:02:24;;;;;;;10.33;2.40;;;;;;;9.10;100.00;99602.97;5036596;28;20106;-87
2022/09/27 01:04:49;;;;;;;7.60;2.00;;;;;;;9.08;100.00;99610.47;5036979;28;20029;-84
2022/09/27 01:07:15;;;;;;;6.47;2.30;;;;;;;9.07;100.00;99612.38;5069136;28;20059;-89
2022/09/27 01:09:41;;;;;;;8.27;1.93;;;;;;;9.04;100.00;99599.31;5037134;28;20114;-84
2022/09/27 01:12:12;;;;;;;5.20;2.40;;;;;;;9.04;100.00;99601.19;5036095;28;20393;-87
2022/09/27 01:14:52;;;;;;;5.37;1.90;;;;;;;9.03;100.00;99599.53;5036669;28;20037;-86
2022/09/27 01:17:28;;;;;;;6.63;1.80;;;;;;;9.02;100.00;99590.63;5037541;28;20039;-85
2022/09/27 01:20:19;;;;;;;5.50;1.50;;;;;;;9.04;100.00;99598.50;5036782;28;20600;-88
2022/09/27 01:23:11;;;;;;;6.37;1.50;;;;;;;8.99;100.00;99601.91;5037174;28;20033;-86
2022/09/27 01:25:45;;;;;;;6.80;1.70;;;;;;;8.99;100.00;99595.66;5036833;28;20064;-85
2022/09/27 01:28:38;;;;;;;6.50;1.70;;;;;;;8.97;100.00;99589.69;5035969;28;21525;-87
2022/09/27 01:31:19;;;;;;;5.17;1.30;;;;;;;8.94;100.00;99588.25;5035933;28;20041;-87
2022/09/27 01:33:50;;;;;;;6.40;1.80;;;;;;;8.86;100.00;99597.50;5026510;28;20088;-88
2022/09/27 01:36:28;;;;;;;4.67;1.50;;;;;;;8.90;100.00;99600.59;5036260;28;20079;-88
2022/09/27 01:39:15;;;;;;;5.40;1.53;;;;;;;8.90;100.00;99598.69;5036793;28;20033;-87
2022/09/27 01:42:01;;;;;;;8.40;1.73;;;;;;;8.88;100.00;99598.13;5036846;28;20039;-87
2022/09/27 01:44:48;;;;;;;6.23;1.53;;;;;;;8.85;100.00;99598.56;5036446;28;20054;-87
2022/09/27 01:47:37;;;;;;;9.97;1.80;;;;;;;8.83;100.00;99603.38;5036627;28;20090;-86
2022/09/27 01:50:12;;;;;;;7.10;1.60;;;;;;;8.82;100.00;99617.94;5036091;28;20046;-89
2022/09/27 01:52:50;;;;;;;5.57;1.60;;;;;;;8.84;100.00;99615.84;5037192;28;20090;-89
2022/09/27 01:55:20;;;;;;;7.40;1.70;;;;;;;8.82;100.00;99617.13;5036460;28;20029;-88
2022/09/27 01:57:57;;;;;;;5.43;1.33;;;;;;;8.80;100.00;99614.66;5026821;28;20037;-88
2022/09/27 02:00:22;;;;;;;5.63;1.60;;;;;;;8.78;100.00;99619.44;5035674;28;20033;-88
2022/09/27 02:02:55;;;;;;;7.20;1.90;;;;;;;8.77;100.00;99620.50;5036459;28;20036;-88
2022/09/27 02:05:41;;;;;;;5.37;1.67;;;;;;;8.79;100.00;99613.81;5036571;28;20040;-88
2022/09/27 02:08:16;;;;;;;6.40;1.80;;;;;;;8.76;100.00;99613.47;5036256;28;20061;-87
2022/09/27 02:10:45;;;;;;;5.53;1.70;;;;;;;8.72;100.00;99607.69;5035465;28;20037;-92
2022/09/27 02:13:19;;;;;;;9.33;1.77;;;;;;;8.67;100.00;99598.63;5036115;28;20026;-90
2022/09/27 02:16:22;;;;;;;8.55;1.80;;;;;;;8.74;100.00;99610.16;5068396;28;20124;-86
2022/09/27 02:19:01;;;;;;;7.40;1.67;;;;;;;8.68;100.00;99613.78;5048535;28;20052;-86
2022/09/27 02:22:04;;;;;;;4.13;1.50;;;;;;;8.70;100.00;99614.38;5036183;28;20477;-86
2022/09/27 02:24:56;;;;;;;6.47;1.80;;;;;;;8.70;100.00;99619.78;5032631;28;20048;-87
2022/09/27 02:27:37;;;;;;;6.83;1.70;;;;;;;8.64;100.00;99620.72;5027450;28;21568;-87
2022/09/27 02:30:14;;;;;;;6.17;1.57;;;;;;;8.61;100.00;99619.28;5035546;28;20037;-87
2022/09/27 02:32:40;;;;;;;4.53;1.70;;;;;;;8.57;100.00;99613.50;5034952;28;20029;-84
2022/09/27 02:35:21;;;;;;;6.33;1.50;;;;;;;8.53;100.00;99614.22;5034957;28;20629;-86
2022/09/27 02:37:47;;;;;;;6.73;1.70;;;;;;;8.50;100.00;99615.47;5034557;28;20037;-87
2022/09/27 02:40:13;;;;;;;7.33;2.00;;;;;;;8.48;100.00;99616.75;5035059;28;20029;-85
2022/09/27 02:42:41;;;;;;;6.83;1.63;;;;;;;8.46;100.00;99617.00;5036750;28;20053;-87
2022/09/27 02:45:08;;;;;;;4.23;1.40;;;;;;;8.43;100.00;99623.63;5035487;28;20041;-87
2022/09/27 02:47:42;;;;;;;6.27;1.23;;;;;;;8.45;100.00;99632.34;5035145;28;20025;-87
2022/09/27 02:50:17;;;;;;;3.97;1.15;;;;;;;8.42;100.00;99623.88;5035333;28;20389;-88
2022/09/27 02:52:56;;;;;;;5.50;1.43;;;;;;;8.38;100.00;99618.09;5035258;28;20057;-86
2022/09/27 02:55:32;;;;;;;6.20;1.40;;;;;;;8.37;100.00;99605.63;5035366;28;20041;-88
2022/09/27 02:58:23;;;;;;;8.17;1.73;;;;;;;8.40;100.00;99609.75;5035872;28;20039;-88
2022/09/27 03:01:05;;;;;;;8.97;1.80;;;;;;;8.35;100.00;99623.09;5035567;28;20045;-86
2022/09/27 03:03:48;;;;;;;4.60;1.47;;;;;;;8.33;100.00;99615.25;5034203;28;20029;-87
2022/09/27 03:06:17;;;;;;;6.30;1.83;;;;;;;8.24;100.00;99605.81;5035127;28;20044;-86
2022/09/27 03:08:43;;;;;;;4.93;1.40;;;;;;;8.19;100.00;99611.09;5035825;28;20066;-86
2022/09/27 03:11:08;;;;;;;5.77;1.70;;;;;;;8.14;100.00;99616.31;5050833;28;20108;-89
2022/09/27 03:13:37;;;;;;;5.30;1.67;;;;;;;8.07;100.00;99608.31;5034062;28;20405;-85
2022/09/27 03:16:03;;;;;;;6.13;1.70;;;;;;;8.05;100.00;99613.94;5034952;28;20040;-88
2022/09/27 03:18:28;;;;;;;7.93;1.97;;;;;;;8.05;100.00;99605.00;5034983;28;20122;-86
2022/09/27 03:20:53;;;;;;;7.53;1.63;;;;;;;8.01;100.00;99612.75;5067523;28;20072;-87
2022/09/27 03:23:19;;;;;;;9.03;2.00;;;;;;;7.98;100.00;99609.66;5035100;28;20033;-86
2022/09/27 03:25:45;;;;;;;4.47;1.50;;;;;;;7.95;100.00;99605.53;5035139;28;20044;-86
2022/09/27 03:28:10;;;;;;;6.97;1.50;;;;;;;7.89;100.00;99611.84;5035554;28;20033;-88
2022/09/27 03:30:36;;;;;;;6.47;1.90;;;;;;;7.93;100.00;99605.75;5035528;28;20059;-85
2022/09/27 03:33:02;;;;;;;5.93;1.60;;;;;;;7.89;100.00;99612.66;5035356;28;20059;-86
2022/09/27 03:35:27;;;;;;;7.80;1.77;;;;;;;7.91;100.00;99618.66;5033362;28;20473;-86
2022/09/27 03:37:52;;;;;;;7.23;1.90;;;;;;;7.90;100.00;99624.25;5035417;28;20921;-86
2022/09/27 03:40:18;;;;;;;7.27;2.33;;;;;;;7.89;100.00;99628.03;5035188;28;20043;-86
2022/09/27 03:42:43;;;;;;;7.97;2.20;;;;;;;7.91;100.00;99634.00;5035155;28;20044;-85
2022/09/27 03:45:10;;;;;;;6.63;2.03;;;;;;;7.92;100.00;99631.06;5034922;28;20036;-88
2022/09/27 03:47:39;;;;;;;6.97;2.40;;;;;;;7.96;100.00;99641.44;5024787;28;20130;-86
2022/09/27 03:50:05;;;;;;;5.90;1.80;;;;;;;8.00;100.00;99648.03;5066485;28;20037;-88
2022/09/27 03:52:30;;;;;;;4.80;1.60;;;;;;;8.06;100.00;99666.81;5035767;28;20464;-86
2022/09/27 03:55:02;;;;;;;6.87;2.03;;;;;;;8.08;100.00;99680.91;5038844;28;20040;-88
2022/09/27 03:57:29;;;;;;;7.17;2.53;;;;;;;8.06;100.00;99677.59;5039236;28;20069;-89
2022/09/27 03:59:55;;;;;;;9.97;1.90;;;;;;;8.08;100.00;99678.22;5053392;28;20033;-88
2022/09/27 04:02:20;;;;;;;4.50;1.40;;;;;;;8.08;100.00;99678.22;5038556;28;20103;-87
2022/09/27 04:04:45;;;;;;;7.27;1.30;;;;;;;8.09;100.00;99674.47;5038447;28;20519;-88
2022/09/27 04:07:11;;;;;;;4.53;1.40;;;;;;;7.99;100.00;99668.78;5038931;28;20539;-87
2022/09/27 04:09:36;;;;;;;7.80;1.80;;;;;;;7.99;100.00;99667.97;5044292;28;20105;-87
2022/09/27 04:12:03;;;;;;;3.00;0.90;;;;;;;7.88;100.00;99662.25;5038680;28;20500;-88
2022/09/27 04:14:28;;;;;;;4.63;1.27;;;;;;;7.83;100.00;99672.88;5069420;28;20025;-89
2022/09/27 04:16:54;;;;;;;2.77;1.07;;;;;;;7.79;100.00;99655.47;5038369;28;20037;-86
2022/09/27 04:19:20;;;;;;;3.07;1.10;;;;;;;7.75;100.00;99657.81;5070195;28;21741;-86
2022/09/27 04:21:45;;;;;;;4.00;1.30;;;;;;;7.76;100.00;99639.75;5037275;28;20859;-85
2022/09/27 04:24:10;;;;;;;4.13;1.10;;;;;;;7.71;100.00;99631.50;5070136;28;20048;-87
2022/09/27 04:26:36;;;;;;;5.63;0.97;;;;;;;7.68;100.00;99629.25;5037855;28;20041;-87
2022/09/27 04:29:02;;;;;;;1.93;0.80;;;;;;;7.64;100.00;99622.66;5037010;28;20411;-85
2022/09/27 04:31:28;;;;;;;3.00;0.97;;;;;;;7.64;100.00;99626.19;5036604;28;20044;-87
2022/09/27 04:33:54;;;;;;;2.97;1.00;;;;;;;7.68;100.00;99623.88;5037710;28;20040;-87
2022/09/27 04:36:27;;;;;;;5.40;1.30;;;;;;;7.70;100.00;99627.19;5027920;28;20048;-89
2022/09/27 04:39:00;;;;;;;6.73;1.87;;;;;;;7.72;100.00;99630.47;5068265;28;20496;-89
2022/09/27 04:41:27;;;;;;;4.73;1.63;;;;;;;7.72;100.00;99630.47;5037835;28;20087;-86
2022/09/27 04:43:54;;;;;;;4.87;1.50;;;;;;;7.75;100.00;99630.84;5037548;28;20087;-85
2022/09/27 04:46:20;;;;;;;6.23;1.60;;;;;;;7.73;100.00;99624.84;5037832;28;20067;-86
2022/09/27 04:48:48;;;;;;;6.30;1.70;;;;;;;7.76;100.00;99628.97;5032668;28;20129;-88
2022/09/27 04:51:18;;;;;;;7.20;1.97;;;;;;;7.75;100.00;99632.72;5037439;28;21077;-88
2022/09/27 04:53:44;;;;;;;4.23;1.60;;;;;;;7.75;100.00;99635.41;5037471;28;21382;-93
2022/09/27 04:56:11;;;;;;;7.20;1.73;;;;;;;7.77;100.00;99649.50;5037082;28;20044;-89
2022/09/27 04:58:37;;;;;;;5.33;1.60;;;;;;;7.78;100.00;99654.66;5069568;28;20396;-85
2022/09/27 05:01:03;;;;;;;6.93;1.60;;;;;;;7.77;100.00;99674.59;5037789;28;20033;-86
2022/09/27 05:03:30;;;;;;;6.40;1.70;;;;;;;7.79;100.00;99679.75;5037570;28;20040;-86
2022/09/27 05:05:55;;;;;;;4.97;1.37;;;;;;;7.76;100.00;99682.91;5036398;28;20477;-85
2022/09/27 05:08:21;;;;;;;4.60;1.30;;;;;;;7.76;100.00;99699.91;5038083;28;20044;-87
2022/09/27 05:10:46;;;;;;;5.10;1.30;;;;;;;7.72;100.00;99706.78;5037195;28;20481;-88
2022/09/27 05:13:13;;;;;;;5.13;1.83;;;;;;;7.72;100.00;99698.69;5037311;28;20511;-89
2022/09/27 05:15:39;;;;;;;5.13;1.80;;;;;;;7.71;100.00;99698.91;5037169;28;20127;-85
2022/09/27 05:18:07;;;;;;;5.33;1.40;;;;;;;7.72;100.00;99692.47;5037368;28;20381;-83
2022/09/27 05:20:33;;;;;;;4.07;1.33;;;;;;;7.69;100.00;99682.97;5035100;28;20611;-84
2022/09/27 05:22:59;;;;;;;3.43;1.20;;;;;;;7.67;100.00;99681.53;5052245;28;20032;-86
2022/09/27 05:25:24;;;;;;;4.33;1.30;;;;;;;7.69;100.00;99682.16;5018812;28;20037;-88
2022/09/27 05:27:50;;;;;;;3.23;1.20;;;;;;;7.68;100.00;99684.00;5026755;28;20043;-90
2022/09/27 05:30:16;;;;;;;5.53;1.70;;;;;;;7.67;100.00;99666.19;5036603;28;20090;-88
2022/09/27 05:32:42;;;;;;;3.77;1.43;;;;;;;7.64;100.00;99655.03;5037055;28;20501;-86
2022/09/27 05:35:08;;;;;;;4.40;1.50;;;;;;;7.64;100.00;99660.41;5036024;28;20070;-92
2022/09/27 05:37:34;;;;;;;7.53;1.93;;;;;;;7.63;100.00;99658.75;5069161;28;20053;-85
2022/09/27 05:40:00;;;;;;;6.30;1.60;;;;;;;7.67;100.00;99668.03;5035858;28;20645;-86
2022/09/27 05:42:25;;;;;;;5.77;1.70;;;;;;;7.68;100.00;99665.13;5037001;28;20052;-88
2022/09/27 05:44:51;;;;;;;4.07;1.20;;;;;;;7.63;100.00;99653.38;5036690;28;20043;-84
2022/09/27 05:47:16;;;;;;;4.67;1.37;;;;;;;7.69;100.00;99663.28;5036269;28;20047;-87
2022/09/27 05:49:41;;;;;;;4.07;1.47;;;;;;;7.66;100.00;99652.94;5036282;28;20041;-88
2022/09/27 05:52:07;;;;;;;6.40;1.70;;;;;;;7.69;100.00;99657.88;5068429;28;20062;-87
2022/09/27 05:54:33;;;;;;;6.10;1.57;;;;;;;7.62;100.00;99646.34;5034624;28;20064;-87
2022/09/27 05:56:59;;;;;;;6.17;1.30;;;;;;;7.60;100.00;99658.16;5036408;28;20439;-86
2022/09/27 05:59:25;;;;;;;4.50;1.30;;;;;;;7.64;100.00;99642.34;5043546;28;20037;-86
2022/09/27 06:01:51;;;;;;;6.87;1.40;;;;;;;7.63;100.00;99648.81;5036240;28;20413;-86
2022/09/27 06:04:17;;;;;;;5.50;1.40;;;;;;;7.65;100.00;99637.81;5036221;28;20037;-86
2022/09/27 06:06:43;;;;;;;5.97;1.50;;;;;;;7.59;100.00;99659.19;5068847;28;20061;-86
2022/09/27 06:09:10;;;;;;;3.30;1.33;;;;;;;7.58;100.00;99656.72;5035908;28;20127;-85
2022/09/27 06:11:35;;;;;;;6.13;1.93;;;;;;;7.57;100.00;99658.59;5035837;28;20049;-88
2022/09/27 06:14:01;;;;;;;4.20;1.80;;;;;;;7.62;100.00;99662.53;5036230;28;20477;-85
2022/09/27 06:16:27;;;;;;;5.80;2.00;;;;;;;7.63;100.00;99666.84;5067821;28;20953;-85
2022/09/27 06:18:52;;;;;;;5.00;2.00;;;;;;;7.63;100.00;99672.22;5036287;28;20124;-89
2022/09/27 06:21:18;;;;;;;5.37;1.37;;;;;;;7.66;100.00;99686.09;5035633;28;20781;-86
2022/09/27 06:23:43;;;;;;;6.03;1.57;;;;;;;7.63;100.00;99685.72;5036063;28;20045;-85
2022/09/27 06:26:09;;;;;;;3.57;1.20;;;;;;;7.65;100.00;99687.16;5034174;28;20484;-87
2022/09/27 06:28:35;;;;;;;2.90;1.20;;;;;;;7.66;100.00;99688.00;5035788;28;20091;-86
2022/09/27 06:31:00;;;;;;;3.87;1.50;;;;;;;7.67;100.00;99684.22;5035106;28;20484;-87
2022/09/27 06:33:29;;;;;;;4.23;1.20;;;;;;;7.68;100.00;99681.31;5067867;28;20044;-84
2022/09/27 06:35:55;;;;;;;2.43;1.30;;;;;;;7.66;100.00;99690.69;5035231;28;20055;-87
2022/09/27 06:38:21;;;;;;;2.23;1.30;;;;;;;7.65;100.00;99697.94;5067463;28;20036;-86
2022/09/27 06:40:46;;;;;;;4.07;1.63;;;;;;;7.63;100.00;99696.50;5035436;28;20115;-89
2022/09/27 06:43:18;;;;;;;3.37;1.37;;;;;;;7.66;100.00;99696.06;5066961;28;20037;-88
2022/09/27 06:45:44;;;;;;;4.33;1.70;;;;;;;7.65;100.00;99689.03;5035254;28;20029;-84
2022/09/27 06:48:11;;;;;;;4.43;1.60;;;;;;;7.64;100.00;99681.97;5035762;28;20081;-85
2022/09/27 06:50:39;;;;;;;1.90;1.70;;;;;;;7.63;100.00;99689.25;5035516;28;20040;-86
2022/09/27 06:53:06;;;;;;;4.83;2.00;;;;;;;7.63;100.00;99693.78;5035598;28;20145;-84
2022/09/27 06:55:31;;;;;;;3.07;1.80;;;;;;;7.61;100.00;99688.63;5034915;28;20037;-85
2022/09/27 07:00:54;;;;;;;4.47;1.90;;;;;;;7.64;100.00;99698.16;4985628;28;20054;-85
2022/09/27 07:03:21;;;;;;;3.63;2.10;;;;;;;7.67;100.00;99695.00;5035424;28;20051;-85
2022/09/27 07:05:58;;;;;;;5.07;2.50;;;;;;;7.72;100.00;99695.19;5025008;28;20505;-83
2022/09/27 07:08:27;;;;;;;6.97;2.47;;;;;;;7.66;100.00;99696.88;5036317;28;20029;-85
2022/09/27 07:10:54;;;;;;;3.87;2.33;;;;;;;7.67;100.00;99692.31;5035080;28;20036;-85
2022/09/27 07:13:20;;;;;;;5.87;2.60;;;;;;;7.65;100.00;99692.53;5035768;28;20048;-85
2022/09/27 07:15:45;;;;;;;3.93;2.80;;;;;;;7.66;100.00;99699.59;5067121;28;20072;-86
2022/09/27 07:18:11;;;;;;;4.23;2.87;;;;;;;7.71;100.00;99697.06;5034971;28;20037;-83
2022/09/27 07:20:37;;;;;;;5.37;3.00;;;;;;;7.76;100.00;99705.31;5067376;28;20033;-83
2022/09/27 07:23:04;;;;;;;3.50;3.17;;;;;;;7.81;100.00;99709.22;5034525;28;20115;-84
2022/09/27 07:25:30;;;;;;;4.83;3.40;;;;;;;7.83;100.00;99710.63;5035107;28;20773;-84
2022/09/27 07:28:04;;;;;;;7.43;4.13;;;;;;;7.84;100.00;99714.97;5036238;28;20048;-86
2022/09/27 07:30:30;;;;;;;7.13;4.90;;;;;;;7.87;100.00;99717.22;5039270;28;20047;-85
2022/09/27 07:33:00;;;;;;;5.20;3.70;;;;;;;7.88;100.00;99715.38;5038998;28;20109;-86
2022/09/27 07:35:26;;;;;;;7.53;3.87;;;;;;;7.96;100.00;99725.88;5038627;28;20476;-87
2022/09/27 07:37:52;;;;;;;6.17;3.70;;;;;;;7.92;100.00;99717.38;5038827;28;20079;-86
2022/09/27 07:40:18;;;;;;;6.33;4.00;;;;;;;7.99;100.00;99730.00;5039038;28;20616;-86
2022/09/27 07:42:44;;;;;;;5.50;4.00;;;;;;;7.97;100.00;99723.97;5039256;28;20485;-85
2022/09/27 07:45:10;;;;;;;7.07;4.30;;;;;;;7.98;100.00;99725.66;5038468;28;20043;-87
2022/09/27 07:47:40;;;;;;;5.13;4.30;;;;;;;8.06;100.00;99725.34;5039075;28;20044;-88
2022/09/27 07:50:09;;;;;;;7.23;4.47;;;;;;;8.06;100.00;99728.88;5038777;28;20485;-85
2022/09/27 07:52:40;;;;;;;5.83;4.40;;;;;;;8.04;100.00;99722.06;5038921;28;20125;-87
2022/09/27 07:55:06;;;;;;;8.40;5.63;;;;;;;8.15;100.00;99731.31;5039107;28;20032;-85
2022/09/27 07:57:31;;;;;;;8.87;6.93;;;;;;;8.14;100.00;99735.03;5038716;28;20053;-86
2022/09/27 07:59:56;;;;;;;6.83;6.13;;;;;;;8.14;100.00;99741.25;5038813;28;20102;-86
2022/09/27 08:02:23;;;;;;;7.53;6.13;;;;;;;8.20;100.00;99742.22;5039067;28;20028;-87
2022/09/27 08:04:48;;;;;;;8.13;6.27;;;;;;;8.22;100.00;99748.25;5038692;28;20063;-86
2022/09/27 08:07:14;;;;;;;8.87;6.60;;;;;;;8.24;100.00;99741.56;5038022;28;20124;-86
2022/09/27 08:09:40;;;;;;;6.93;6.23;;;;;;;8.30;100.00;99744.44;5038689;28;20497;-85
2022/09/27 08:12:05;;;;;;;8.77;6.90;;;;;;;8.30;100.00;99742.53;5037509;28;20190;-86
2022/09/27 08:14:31;;;;;;;12.27;8.30;;;;;;;8.36;100.00;99740.81;5038368;28;20048;-89
2022/09/27 08:16:56;;;;;;;9.87;6.77;;;;;;;8.36;100.00;99738.13;5038291;28;20043;-86
2022/09/27 08:19:22;;;;;;;9.77;6.93;;;;;;;8.40;100.00;99745.53;5038239;28;20140;-87
2022/09/27 08:21:47;;;;;;;9.40;6.90;;;;;;;8.44;100.00;99745.91;5037937;28;20041;-87
2022/09/27 08:24:13;;;;;;;9.70;6.63;;;;;;;8.50;100.00;99746.91;5037455;28;20497;-89
2022/09/27 08:26:38;;;;;;;9.87;7.80;;;;;;;8.49;100.00;99748.81;5038141;28;20821;-85
2022/09/27 08:29:04;;;;;;;9.57;7.37;;;;;;;8.52;100.00;99742.94;5037073;28;20073;-89
2022/09/27 08:31:29;;;;;;;8.83;6.80;;;;;;;8.55;100.00;99745.19;5037394;28;20591;-85
2022/09/27 08:33:56;;;;;;;9.67;6.90;;;;;;;8.60;100.00;99745.34;5038111;28;20041;-90
2022/09/27 08:36:23;;;;;;;9.03;7.20;;;;;;;8.64;100.00;99745.72;5036106;28;20507;-88
2022/09/27 08:38:49;;;;;;;8.93;6.90;;;;;;;8.71;100.00;99754.56;5033308;28;20612;-89
2022/09/27 08:41:42;;;;;;;11.37;7.73;;;;;;;8.83;100.00;99749.25;5037374;28;20079;-86
2022/09/27 08:44:25;;;;;;;14.03;9.07;;;;;;;8.83;100.00;99751.13;5010460;28;20713;-87
2022/09/27 08:47:14;;;;;;;11.47;7.87;;;;;;;8.80;100.00;99763.19;5037570;28;20029;-86
2022/09/27 08:50:18;;;;;;;9.20;7.87;;;;;;;8.80;100.00;99765.91;5038516;28;20362;-91
2022/09/27 08:52:54;;;;;;;10.17;7.60;;;;;;;8.76;100.00;99762.81;5039867;28;20496;-87
2022/09/27 08:55:31;;;;;;;8.97;8.03;;;;;;;8.81;100.00;99766.72;5037557;28;20410;-89
2022/09/27 08:57:58;;;;;;;9.13;8.00;;;;;;;8.81;100.00;99770.22;5036052;28;20365;-89
2022/09/27 09:00:25;;;;;;;10.83;8.67;;;;;;;8.80;100.00;99760.50;5069639;28;20362;-85
2022/09/27 09:02:50;;;;;;;10.93;9.00;;;;;;;8.81;100.00;99772.94;5027230;28;20057;-86
2022/09/27 09:05:32;;;;;;;11.07;9.70;;;;;;;8.86;100.00;99773.09;5035475;28;20553;-86
2022/09/27 09:08:17;;;;;;;13.33;10.20;;;;;;;8.83;100.00;99770.84;5027299;28;20043;-87
2022/09/27 09:13:59;;;;;;;12.80;10.53;;;;;;;8.86;100.00;99786.59;5037280;28;19970;-88
2022/09/27 09:16:42;;;;;;;14.00;10.87;;;;;;;8.82;100.00;99779.19;5037053;28;20032;-89
2022/09/27 09:19:22;;;;;;;14.00;11.10;;;;;;;8.81;100.00;99777.53;5036824;28;20048;-89
2022/09/27 09:22:06;;;;;;;16.23;12.33;;;;;;;8.77;100.00;99785.25;5036507;28;20067;-89
2022/09/27 09:24:43;;;;;;;14.13;11.97;;;;;;;8.73;100.00;99781.34;5035757;28;20398;-87
2022/09/27 09:27:20;;;;;;;14.27;12.47;;;;;;;8.73;100.00;99794.84;5036314;28;20059;-89
2022/09/27 09:29:49;;;;;;;13.50;11.43;;;;;;;8.69;100.00;99791.78;5036803;28;20090;-86
2022/09/27 09:32:44;;;;;;;14.73;12.30;;;;;;;8.74;100.00;99788.41;5052051;28;20432;-83
2022/09/27 09:35:19;;;;;;;14.45;12.45;;;;;;;8.71;100.00;99788.88;5037106;28;20358;-87
2022/09/27 09:37:52;;;;;;;16.10;12.53;;;;;;;8.70;100.00;99787.19;5036907;28;20043;-88
2022/09/27 09:40:40;;;;;;;14.43;12.47;;;;;;;8.70;100.00;99787.19;5036895;28;20032;-86
2022/09/27 09:43:22;;;;;;;15.50;11.93;;;;;;;8.71;100.00;99783.47;5036686;28;20029;-86
2022/09/27 09:46:00;;;;;;;15.50;11.73;;;;;;;8.69;100.00;99785.53;5036327;28;20037;-86
2022/09/27 09:48:38;;;;;;;16.30;11.70;;;;;;;8.70;100.00;99789.91;5037395;28;20060;-86
2022/09/27 09:51:07;;;;;;;12.70;9.10;;;;;;;8.69;100.00;99788.25;5034425;28;20120;-89
2022/09/27 09:53:48;;;;;;;9.63;7.00;;;;;;;8.63;100.00;99787.28;5036796;28;20037;-89
2022/09/27 09:56:26;;;;;;;7.30;4.97;;;;;;;8.53;100.00;99787.81;5035987;28;20086;-88
2022/09/27 09:58:55;;;;;;;4.67;3.70;;;;;;;8.42;100.00;99788.53;5037220;28;20036;-87
2022/09/27 10:01:26;;;;;;;5.30;2.83;;;;;;;8.27;100.00;99786.19;5036422;28;20134;-88
2022/09/27 10:03:54;;;;;;;3.97;2.10;;;;;;;8.18;100.00;99784.81;5026524;28;20912;-90
2022/09/27 10:06:19;;;;;;;2.07;1.90;;;;;;;8.10;100.00;99788.59;5035251;28;20493;-86
2022/09/27 10:08:46;;;;;;;2.47;2.13;;;;;;;8.03;100.00;99782.47;5036754;28;20037;-84
2022/09/27 10:11:44;;;;;;;4.37;1.83;;;;;;;8.03;100.00;99785.16;5035519;28;20141;-85
2022/09/27 10:14:13;;;;;;;2.37;2.00;;;;;;;7.99;100.00;99781.25;5036336;28;20730;-86
2022/09/27 10:16:42;;;;;;;4.07;3.10;;;;;;;8.07;100.00;99780.97;5035190;28;20044;-88
2022/09/27 10:19:08;;;;;;;3.70;3.17;;;;;;;8.13;100.00;99780.06;5034926;28;20037;-87
2022/09/27 10:21:38;;;;;;;5.80;4.30;;;;;;;8.19;100.00;99787.28;5036426;28;20037;-86
2022/09/27 10:24:13;;;;;;;5.47;3.97;;;;;;;8.27;100.00;99778.09;5067757;28;20831;-86
2022/09/27 10:26:42;;;;;;;7.13;4.70;;;;;;;8.31;100.00;99790.09;5036340;28;20128;-91
2022/09/27 10:29:19;;;;;;;4.47;3.20;;;;;;;8.33;100.00;99787.97;5035889;28;22039;-86
2022/09/27 10:31:47;;;;;;;3.60;2.60;;;;;;;8.32;100.00;99783.63;5035598;28;20032;-88
2022/09/27 10:34:34;;;;;;;4.30;3.00;;;;;;;8.31;100.00;99791.94;5035972;28;20544;-89
2022/09/27 10:37:11;;;;;;;4.80;2.63;;;;;;;8.30;100.00;99795.72;5035483;28;20040;-88
2022/09/27 10:39:39;;;;;;;3.37;2.40;;;;;;;8.23;100.00;99783.09;5036182;28;20036;-87
2022/09/27 10:42:21;;;;;;;2.03;1.63;;;;;;;8.24;100.00;99790.16;5035130;28;20040;-87
2022/09/27 10:44:46;;;;;;;2.63;1.90;;;;;;;8.28;100.00;99785.13;5036631;28;20159;-85
2022/09/27 10:47:21;;;;;;;3.37;2.07;;;;;;;8.26;100.00;99788.03;5035793;28;20045;-90
2022/09/27 10:53:15;;;;;;;2.50;1.50;;;;;;;8.33;100.00;99790.66;5034913;28;20064;-89
2022/09/27 10:55:42;;;;;;;2.77;1.57;;;;;;;8.28;100.00;99796.75;5035466;28;20381;-89
2022/09/27 10:58:19;;;;;;;2.53;1.57;;;;;;;8.27;100.00;99787.00;5035660;28;20123;-86
2022/09/27 11:00:59;;;;;;;2.10;1.67;;;;;;;8.32;100.00;99780.91;5035494;28;20043;-86
2022/09/27 11:03:27;;;;;;;2.57;1.70;;;;;;;8.34;100.00;99788.81;5037823;28;20029;-86
2022/09/27 11:05:54;;;;;;;4.63;1.87;;;;;;;8.37;100.00;99781.09;5071190;28;20032;-85
2022/09/27 11:08:22;;;;;;;2.27;1.63;;;;;;;8.40;100.00;99790.59;5039558;28;20040;-85
2022/09/27 11:11:05;;;;;;;2.90;1.60;;;;;;;8.44;100.00;99795.34;5037431;28;20444;-88
2022/09/27 11:15:08;;;;;;;1.73;1.40;;;;;;;8.53;100.00;99787.00;5008091;22;20173;-87
2022/09/27 11:18:00;;;;;;;2.80;1.53;;;;;;;8.49;100.00;99797.41;5043952;28;20049;-87
2022/09/27 11:20:42;;;;;;;3.57;1.10;;;;;;;8.55;100.00;99796.50;5043767;28;20509;-87
2022/09/27 11:23:10;;;;;;;2.43;1.00;;;;;;;8.45;100.00;99791.63;5044101;28;20117;-85
2022/09/27 11:26:07;;;;;;;2.20;1.30;;;;;;;8.56;100.00;99791.94;5043078;28;20056;-86
2022/09/27 11:29:00;;;;;;;2.30;1.20;;;;;;;8.58;100.00;99793.38;5043477;28;20041;-87
2022/09/27 11:31:29;;;;;;;1.87;1.00;;;;;;;8.66;100.00;99796.81;5043325;28;20111;-87
2022/09/27 11:33:54;;;;;;;2.77;1.20;;;;;;;8.63;100.00;99791.88;5042491;28;20382;-87
2022/09/27 11:36:37;;;;;;;1.83;1.20;;;;;;;8.63;100.00;99803.47;5043085;28;20415;-86
2022/09/27 11:39:42;;;;;;;1.30;1.17;;;;;;;8.72;100.00;99785.13;5021050;28;20114;-88
2022/09/27 11:42:13;;;;;;;1.60;1.17;;;;;;;8.70;100.00;99787.19;5010869;28;20602;-87
2022/09/27 11:44:56;;;;;;;1.30;1.00;;;;;;;8.66;100.00;99775.19;5042608;28;20376;-87
2022/09/27 11:47:24;;;;;;;1.43;1.10;;;;;;;8.67;100.00;99788.47;5043399;28;20123;-88
2022/09/27 11:50:18;;;;;;;1.90;1.00;;;;;;;8.69;100.00;99780.16;5041746;28;20171;-87
2022/09/27 11:53:02;;;;;;;1.17;0.90;;;;;;;8.65;100.00;99777.09;5024829;28;20028;-88
2022/09/27 11:55:45;;;;;;;2.80;0.90;;;;;;;8.67;100.00;99777.69;5043177;28;20510;-87
2022/09/27 11:58:10;;;;;;;1.70;0.60;;;;;;;8.74;100.00;99767.63;5042878;28;20827;-87
2022/09/27 12:00:47;;;;;;;1.57;1.00;;;;;;;8.80;100.00;99768.59;5043693;28;20037;-88
2022/09/27 12:03:39;;;;;;;2.53;0.67;;;;;;;8.81;100.00;99774.81;5043428;28;20457;-87